createdAt,value
2018-06-27T00:00:15.576Z,15.30
2018-06-27T00:02:44.111Z,15.30
2018-06-27T00:05:12.636Z,15.30
2018-06-27T00:07:41.269Z,15.20
2018-06-27T00:10:09.869Z,15.20
2018-06-27T00:15:06.584Z,15.20
2018-06-27T00:17:35.118Z,15.10
2018-06-27T00:20:03.686Z,15.10
2018-06-27T00:22:32.659Z,15.20
2018-06-27T00:25:01.167Z,15.20
2018-06-27T00:27:29.672Z,15.10
2018-06-27T00:29:58.202Z,15.10
2018-06-27T00:32:26.726Z,15.10
2018-06-27T00:34:55.259Z,15.10
2018-06-27T00:37:23.790Z,15.00
2018-06-27T00:39:52.305Z,15.00
2018-06-27T00:42:20.874Z,15.00
2018-06-27T00:44:49.392Z,14.90
2018-06-27T00:47:17.891Z,14.90
2018-06-27T00:49:46.396Z,14.90
2018-06-27T00:52:14.998Z,14.90
2018-06-27T00:54:43.606Z,14.80
2018-06-27T00:57:12.146Z,14.80
2018-06-27T01:02:11.092Z,14.80
2018-06-27T01:04:41.032Z,14.80
2018-06-27T01:07:10.947Z,14.80
2018-06-27T01:09:39.891Z,14.80
2018-06-27T01:12:08.427Z,14.90
2018-06-27T01:14:37.136Z,14.90
2018-06-27T01:17:05.708Z,15.00
2018-06-27T01:19:34.513Z,15.00
2018-06-27T01:22:03.462Z,15.00
2018-06-27T01:24:32.159Z,15.00
2018-06-27T01:27:00.674Z,15.00
2018-06-27T01:29:30.011Z,15.00
2018-06-27T01:31:58.590Z,15.00
2018-06-27T01:34:27.152Z,14.90
2018-06-27T01:36:55.771Z,15.00
2018-06-27T01:39:24.444Z,14.90
2018-06-27T01:41:53.036Z,14.90
2018-06-27T01:44:21.688Z,14.90
2018-06-27T01:46:53.390Z,14.80
2018-06-27T01:49:21.904Z,14.80
2018-06-27T01:51:50.453Z,14.80
2018-06-27T01:54:18.937Z,14.80
2018-06-27T01:56:47.503Z,14.70
2018-06-27T01:59:16.024Z,14.70
2018-06-27T02:01:44.556Z,14.70
2018-06-27T02:04:13.069Z,14.70
2018-06-27T02:06:41.697Z,14.60
2018-06-27T02:09:13.798Z,14.60
2018-06-27T02:11:42.406Z,14.60
2018-06-27T02:14:10.902Z,14.50
2018-06-27T02:16:39.447Z,14.50
2018-06-27T02:19:07.951Z,14.50
2018-06-27T02:21:36.491Z,14.40
2018-06-27T02:24:04.992Z,14.40
2018-06-27T02:29:01.694Z,14.40
2018-06-27T02:31:30.465Z,14.30
2018-06-27T02:33:58.974Z,14.30
2018-06-27T02:36:27.459Z,14.30
2018-06-27T02:38:55.970Z,14.20
2018-06-27T02:41:24.586Z,14.20
2018-06-27T02:43:53.131Z,14.20
2018-06-27T02:46:21.720Z,14.20
2018-06-27T02:48:50.295Z,14.30
2018-06-27T02:51:18.857Z,14.30
2018-06-27T02:53:47.387Z,14.30
2018-06-27T02:56:15.865Z,14.40
2018-06-27T02:58:44.419Z,14.40
2018-06-27T03:01:12.909Z,14.50
2018-06-27T03:03:41.479Z,14.50
2018-06-27T03:08:38.267Z,14.50
2018-06-27T03:11:06.965Z,14.50
2018-06-27T03:13:35.580Z,14.50
2018-06-27T03:16:04.070Z,14.60
2018-06-27T03:18:32.580Z,14.60
2018-06-27T03:21:01.059Z,14.60
2018-06-27T03:23:29.526Z,14.60
2018-06-27T03:25:58.020Z,14.60
2018-06-27T03:28:26.513Z,14.70
2018-06-27T03:30:55.040Z,14.70
2018-06-27T03:33:23.492Z,14.70
2018-06-27T03:35:51.967Z,14.70
2018-06-27T03:38:20.487Z,14.80
2018-06-27T03:43:17.144Z,14.90
2018-06-27T03:48:13.811Z,14.90
2018-06-27T03:53:10.453Z,15.00
2018-06-27T03:55:38.934Z,15.00
2018-06-27T03:58:07.386Z,15.10
2018-06-27T04:00:35.907Z,15.10
2018-06-27T04:03:04.358Z,15.10
2018-06-27T04:05:32.902Z,15.10
2018-06-27T04:10:29.597Z,15.30
2018-06-27T04:12:58.187Z,15.30
2018-06-27T04:15:26.725Z,15.30
2018-06-27T04:17:55.377Z,15.40
2018-06-27T04:20:23.831Z,15.40
2018-06-27T04:22:52.328Z,15.40
2018-06-27T04:25:20.779Z,15.40
2018-06-27T04:27:49.389Z,15.40
2018-06-27T04:30:17.801Z,15.50
2018-06-27T04:32:46.310Z,15.50
2018-06-27T04:35:16.278Z,15.60
2018-06-27T04:37:44.753Z,15.60
2018-06-27T04:40:13.892Z,15.70
2018-06-27T04:42:42.422Z,15.80
2018-06-27T04:45:10.901Z,15.80
2018-06-27T04:47:39.821Z,15.80
2018-06-27T04:52:37.918Z,15.90
2018-06-27T04:55:06.479Z,16.00
2018-06-27T04:57:35.065Z,16.10
2018-06-27T05:00:03.738Z,16.10
2018-06-27T05:02:32.326Z,16.10
2018-06-27T05:05:01.030Z,16.20
2018-06-27T05:07:30.438Z,16.20
2018-06-27T05:09:59.023Z,16.20
2018-06-27T05:12:27.547Z,16.20
2018-06-27T05:17:24.248Z,16.40
2018-06-27T05:19:52.859Z,16.40
2018-06-27T05:22:21.333Z,16.50
2018-06-27T05:24:49.837Z,16.60
2018-06-27T05:27:18.326Z,16.60
2018-06-27T05:29:46.862Z,16.70
2018-06-27T05:32:15.327Z,16.70
2018-06-27T05:34:43.816Z,16.90
2018-06-27T05:39:40.490Z,16.90
2018-06-27T05:42:08.998Z,17.00
2018-06-27T05:44:37.461Z,17.10
2018-06-27T05:49:34.160Z,17.20
2018-06-27T05:52:02.660Z,17.30
2018-06-27T05:54:31.196Z,17.40
2018-06-27T05:56:59.739Z,17.50
2018-06-27T05:59:28.288Z,17.60
2018-06-27T06:01:56.766Z,17.60
2018-06-27T06:04:25.361Z,17.70
2018-06-27T06:06:53.806Z,17.70
2018-06-27T06:09:22.310Z,17.70
2018-06-27T06:11:50.752Z,17.80
2018-06-27T06:14:19.354Z,17.80
2018-06-27T06:16:47.874Z,17.90
2018-06-27T06:21:44.643Z,17.90
2018-06-27T06:24:13.123Z,18.00
2018-06-27T06:26:41.653Z,18.10
2018-06-27T06:29:10.146Z,18.10
2018-06-27T06:31:38.668Z,18.10
2018-06-27T06:34:07.170Z,18.20
2018-06-27T06:41:32.962Z,18.30
2018-06-27T06:44:01.425Z,18.30
2018-06-27T06:46:29.912Z,18.40
2018-06-27T06:48:58.396Z,18.30
2018-06-27T06:51:26.863Z,18.30
2018-06-27T06:56:24.081Z,18.40
2018-06-27T06:58:52.576Z,18.40
2018-06-27T07:01:21.044Z,18.50
2018-06-27T07:03:49.583Z,18.70
2018-06-27T07:06:18.060Z,18.90
2018-06-27T07:08:46.627Z,19.20
2018-06-27T07:11:15.208Z,19.50
2018-06-27T07:13:43.622Z,19.80
2018-06-27T07:16:12.092Z,20.00
2018-06-27T07:18:41.223Z,20.10
2018-06-27T07:21:09.729Z,20.30
2018-06-27T07:26:06.424Z,20.40
2018-06-27T07:28:35.034Z,20.30
2018-06-27T07:31:03.458Z,20.40
2018-06-27T07:33:31.955Z,20.40
2018-06-27T07:36:00.552Z,20.50
2018-06-27T07:38:29.079Z,20.60
2018-06-27T07:40:57.544Z,20.60
2018-06-27T07:43:26.010Z,20.70
2018-06-27T07:45:54.488Z,20.70
2018-06-27T07:48:23.001Z,20.60
2018-06-27T07:50:51.471Z,20.60
2018-06-27T07:53:20.074Z,20.60
2018-06-27T07:55:48.514Z,20.60
2018-06-27T07:58:17.027Z,20.50
2018-06-27T08:00:45.484Z,20.60
2018-06-27T08:03:13.984Z,20.50
2018-06-27T08:05:42.481Z,20.60
2018-06-27T08:08:10.976Z,20.60
2018-06-27T08:10:39.491Z,20.60
2018-06-27T08:13:07.970Z,20.60
2018-06-27T08:15:36.524Z,20.70
2018-06-27T08:20:33.379Z,20.80
2018-06-27T08:23:01.878Z,20.80
2018-06-27T08:25:30.403Z,20.80
2018-06-27T08:27:58.840Z,20.80
2018-06-27T08:30:27.339Z,20.90
2018-06-27T08:32:55.817Z,21.00
2018-06-27T08:35:24.297Z,21.10
2018-06-27T08:37:52.759Z,21.20
2018-06-27T08:40:21.285Z,21.30
2018-06-27T08:42:49.745Z,21.40
2018-06-27T08:47:46.449Z,21.40
2018-06-27T08:50:15.025Z,21.40
2018-06-27T08:52:43.455Z,21.40
2018-06-27T08:55:11.983Z,21.30
2018-06-27T08:57:40.471Z,21.40
2018-06-27T09:00:08.948Z,21.50
2018-06-27T09:02:37.440Z,21.60
2018-06-27T09:05:05.931Z,21.70
2018-06-27T09:07:34.449Z,21.80
2018-06-27T09:10:02.948Z,22.00
2018-06-27T09:12:31.441Z,22.10
2018-06-27T09:14:59.883Z,22.20
2018-06-27T09:17:28.397Z,22.30
2018-06-27T09:19:56.896Z,22.30
2018-06-27T09:22:25.366Z,22.40
2018-06-27T09:24:53.875Z,22.40
2018-06-27T09:27:22.343Z,22.50
2018-06-27T09:29:50.821Z,22.50
2018-06-27T09:32:19.354Z,22.60
2018-06-27T09:34:47.960Z,22.60
2018-06-27T09:37:16.438Z,22.60
2018-06-27T09:42:13.106Z,22.80
2018-06-27T09:49:39.927Z,23.10
2018-06-27T09:52:08.460Z,23.20
2018-06-27T09:54:40.566Z,23.20
2018-06-27T09:57:10.771Z,23.30
2018-06-27T09:59:39.281Z,23.30
2018-06-27T10:02:07.805Z,23.30
2018-06-27T10:07:04.564Z,23.30
2018-06-27T10:09:33.262Z,23.40
2018-06-27T10:12:01.723Z,23.40
2018-06-27T10:14:30.222Z,23.40
2018-06-27T10:16:58.688Z,23.50
2018-06-27T10:19:27.177Z,23.60
2018-06-27T10:21:55.657Z,23.60
2018-06-27T10:24:24.174Z,23.70
2018-06-27T10:26:53.231Z,23.80
2018-06-27T10:29:21.711Z,24.00
2018-06-27T10:31:50.221Z,24.10
2018-06-27T10:34:18.746Z,24.20
2018-06-27T10:36:47.359Z,24.20
2018-06-27T10:39:15.868Z,24.30
2018-06-27T10:41:44.319Z,24.40
2018-06-27T10:44:12.787Z,24.30
2018-06-27T10:46:41.240Z,24.40
2018-06-27T10:49:09.732Z,24.40
2018-06-27T10:51:38.240Z,24.50
2018-06-27T10:54:06.786Z,24.60
2018-06-27T10:56:35.248Z,24.70
2018-06-27T10:59:03.688Z,24.70
2018-06-27T11:01:32.464Z,24.80
2018-06-27T11:04:00.891Z,24.70
2018-06-27T11:06:29.440Z,24.80
2018-06-27T11:08:57.887Z,24.80
2018-06-27T11:13:54.517Z,24.90
2018-06-27T11:16:23.055Z,24.90
2018-06-27T11:18:51.558Z,25.00
2018-06-27T11:21:20.072Z,24.90
2018-06-27T11:23:48.556Z,25.00
2018-06-27T11:26:17.123Z,25.00
2018-06-27T11:28:45.575Z,25.00
2018-06-27T11:31:14.096Z,25.10
2018-06-27T11:33:42.595Z,25.10
2018-06-27T11:36:11.107Z,25.10
2018-06-27T11:41:07.840Z,25.20
2018-06-27T11:43:36.301Z,25.30
2018-06-27T11:46:04.781Z,25.40
2018-06-27T11:48:33.255Z,25.40
2018-06-27T11:51:01.694Z,25.30
2018-06-27T11:53:30.275Z,25.40
2018-06-27T11:55:58.740Z,25.30
2018-06-27T11:58:27.294Z,25.30
2018-06-27T12:00:55.721Z,25.40
2018-06-27T12:03:24.179Z,25.40
2018-06-27T12:05:52.642Z,25.50
2018-06-27T12:10:49.256Z,25.60
2018-06-27T12:13:17.734Z,25.60
2018-06-27T12:15:46.191Z,25.70
2018-06-27T12:18:14.643Z,25.70
2018-06-27T12:20:43.127Z,25.60
2018-06-27T12:23:11.615Z,25.70
2018-06-27T12:25:40.075Z,25.70
2018-06-27T12:28:09.088Z,25.70
2018-06-27T12:30:37.631Z,25.50
2018-06-27T12:33:06.239Z,25.30
2018-06-27T12:35:35.808Z,25.40
2018-06-27T12:38:04.384Z,25.40
2018-06-27T12:43:01.004Z,25.70
2018-06-27T12:45:29.664Z,25.70
2018-06-27T12:47:58.168Z,25.60
2018-06-27T12:50:26.676Z,25.60
2018-06-27T12:52:55.149Z,25.60
2018-06-27T12:55:23.680Z,25.60
2018-06-27T12:57:52.430Z,25.40
2018-06-27T13:00:21.009Z,25.40
2018-06-27T13:02:49.426Z,25.40
2018-06-27T13:05:18.014Z,25.50
2018-06-27T13:07:46.489Z,25.70
2018-06-27T13:10:14.977Z,25.70
2018-06-27T13:12:43.441Z,25.70
2018-06-27T13:15:11.935Z,25.70
2018-06-27T13:17:40.439Z,25.70
2018-06-27T13:20:08.930Z,25.70
2018-06-27T13:22:37.461Z,25.80
2018-06-27T13:25:05.916Z,25.90
2018-06-27T13:27:34.395Z,26.00
2018-06-27T13:30:08.277Z,26.10
2018-06-27T13:32:36.809Z,26.20
2018-06-27T13:35:05.614Z,26.10
2018-06-27T13:37:34.185Z,26.00
2018-06-27T13:44:59.884Z,25.80
2018-06-27T13:47:28.397Z,25.90
2018-06-27T13:49:57.001Z,26.00
2018-06-27T13:52:25.513Z,26.00
2018-06-27T13:54:57.226Z,26.00
2018-06-27T13:57:27.167Z,25.90
2018-06-27T13:59:56.131Z,26.00
2018-06-27T14:02:24.660Z,26.00
2018-06-27T14:07:21.408Z,26.20
2018-06-27T14:09:49.927Z,26.30
2018-06-27T14:12:18.434Z,26.50
2018-06-27T14:14:46.889Z,26.40
2018-06-27T14:17:15.378Z,26.30
2018-06-27T14:19:43.833Z,26.10
2018-06-27T14:22:12.336Z,26.00
2018-06-27T14:29:37.156Z,26.10
2018-06-27T14:32:06.208Z,26.20
2018-06-27T14:34:34.693Z,26.30
2018-06-27T14:37:03.283Z,26.50
2018-06-27T14:39:31.791Z,26.70
2018-06-27T14:42:00.318Z,26.40
2018-06-27T14:46:56.979Z,26.00
2018-06-27T14:49:25.796Z,25.80
2018-06-27T14:51:54.074Z,25.70
2018-06-27T14:54:22.654Z,25.80
2018-06-27T14:59:19.307Z,26.20
2018-06-27T15:01:48.123Z,26.30
2018-06-27T15:04:17.272Z,26.40
2018-06-27T15:06:45.731Z,26.50
2018-06-27T15:09:14.253Z,26.50
2018-06-27T15:11:42.724Z,26.30
2018-06-27T15:14:11.258Z,26.20
2018-06-27T15:19:07.933Z,26.40
2018-06-27T15:24:04.662Z,26.50
2018-06-27T15:26:33.074Z,26.30
2018-06-27T15:31:29.968Z,25.90
2018-06-27T15:33:58.414Z,25.80
2018-06-27T15:36:27.707Z,25.90
2018-06-27T15:38:56.281Z,26.00
2018-06-27T15:41:25.433Z,26.00
2018-06-27T15:43:54.027Z,26.10
2018-06-27T15:46:22.722Z,26.00
2018-06-27T15:48:51.232Z,26.10
2018-06-27T15:51:19.789Z,26.20
2018-06-27T15:53:48.511Z,26.30
2018-06-27T15:56:16.985Z,26.40
2018-06-27T15:58:45.460Z,26.40
2018-06-27T16:01:13.958Z,26.50
2018-06-27T16:03:42.789Z,26.60
2018-06-27T16:06:11.926Z,26.40
2018-06-27T16:08:40.457Z,26.20
2018-06-27T16:11:08.952Z,26.00
2018-06-27T16:13:37.479Z,25.90
2018-06-27T16:16:06.227Z,25.80
2018-06-27T16:18:34.871Z,25.80
2018-06-27T16:21:03.458Z,25.80
2018-06-27T16:23:31.932Z,25.90
2018-06-27T16:26:00.456Z,25.90
2018-06-27T16:28:28.951Z,26.00
2018-06-27T16:30:57.428Z,26.00
2018-06-27T16:33:27.790Z,26.00
2018-06-27T16:35:56.582Z,25.80
2018-06-27T16:38:25.054Z,25.70
2018-06-27T16:40:53.579Z,25.50
2018-06-27T16:43:22.135Z,25.40
2018-06-27T16:48:19.318Z,25.20
2018-06-27T16:50:47.799Z,25.20
2018-06-27T16:53:16.327Z,25.20
2018-06-27T17:00:41.297Z,25.30
2018-06-27T17:03:09.731Z,25.30
2018-06-27T17:05:38.272Z,25.40
2018-06-27T17:08:06.743Z,25.30
2018-06-27T17:10:35.198Z,25.30
2018-06-27T17:18:00.050Z,25.30
2018-06-27T17:20:28.620Z,25.20
2018-06-27T17:22:57.329Z,25.20
2018-06-27T17:25:25.832Z,25.20
2018-06-27T17:27:54.317Z,25.20
2018-06-27T17:30:22.857Z,25.20
2018-06-27T17:32:51.331Z,25.10
2018-06-27T17:35:19.827Z,25.10
2018-06-27T17:37:48.431Z,25.10
2018-06-27T17:40:16.965Z,25.00
2018-06-27T17:42:45.510Z,25.00
2018-06-27T17:47:42.535Z,24.80
2018-06-27T17:50:11.027Z,24.60
2018-06-27T17:52:39.681Z,24.60
2018-06-27T17:55:08.565Z,24.50
2018-06-27T17:57:37.104Z,24.50
2018-06-27T18:00:06.449Z,24.50
2018-06-27T18:02:34.994Z,24.50
2018-06-27T18:05:03.624Z,24.50
2018-06-27T18:07:32.923Z,24.50
2018-06-27T18:10:01.421Z,24.50
2018-06-27T18:12:29.874Z,24.60
2018-06-27T18:14:58.411Z,24.50
2018-06-27T18:17:26.886Z,24.40
2018-06-27T18:19:55.387Z,24.40
2018-06-27T18:22:23.877Z,24.30
2018-06-27T18:24:52.349Z,24.30
2018-06-27T18:27:20.930Z,24.20
2018-06-27T18:29:49.367Z,24.10
2018-06-27T18:32:17.870Z,23.90
2018-06-27T18:34:46.320Z,23.80
2018-06-27T18:37:14.831Z,23.80
2018-06-27T18:39:43.285Z,23.60
2018-06-27T18:42:11.765Z,23.60
2018-06-27T18:44:40.219Z,23.50
2018-06-27T18:49:36.863Z,23.30
2018-06-27T18:54:33.574Z,23.20
2018-06-27T18:57:02.144Z,23.10
2018-06-27T18:59:30.642Z,23.10
2018-06-27T19:01:59.131Z,23.00
2018-06-27T19:04:27.684Z,22.90
2018-06-27T19:06:56.174Z,22.80
2018-06-27T19:09:24.693Z,22.80
2018-06-27T19:11:53.159Z,22.70
2018-06-27T19:16:49.971Z,22.60
2018-06-27T19:19:18.455Z,22.60
2018-06-27T19:21:46.949Z,22.50
2018-06-27T19:24:15.606Z,22.50
2018-06-27T19:26:44.867Z,22.40
2018-06-27T19:29:14.341Z,22.30
2018-06-27T19:31:43.782Z,22.30
2018-06-27T19:34:12.347Z,22.20
2018-06-27T19:36:40.786Z,22.20
2018-06-27T19:39:10.655Z,22.10
2018-06-27T19:41:39.643Z,22.10
2018-06-27T19:44:08.696Z,22.00
2018-06-27T19:46:37.178Z,22.00
2018-06-27T19:49:05.693Z,21.90
2018-06-27T19:51:34.268Z,21.90
2018-06-27T19:54:02.801Z,21.80
2018-06-27T19:56:31.245Z,21.80
2018-06-27T19:58:59.715Z,21.70
2018-06-27T20:01:28.203Z,21.60
2018-06-27T20:03:56.637Z,21.60
2018-06-27T20:06:25.198Z,21.50
2018-06-27T20:08:53.702Z,21.50
2018-06-27T20:11:22.575Z,21.40
2018-06-27T20:13:51.035Z,21.40
2018-06-27T20:16:19.556Z,21.40
2018-06-27T20:18:47.994Z,21.30
2018-06-27T20:23:44.726Z,21.20
2018-06-27T20:26:13.231Z,21.10
2018-06-27T20:28:41.933Z,21.10
2018-06-27T20:31:10.423Z,21.00
2018-06-27T20:33:39.032Z,21.00
2018-06-27T20:36:07.554Z,21.00
2018-06-27T20:38:36.023Z,20.90
2018-06-27T20:41:04.708Z,20.80
2018-06-27T20:43:33.176Z,20.80
2018-06-27T20:46:01.624Z,20.70
2018-06-27T20:48:30.135Z,20.70
2018-06-27T20:53:26.875Z,20.70
2018-06-27T20:55:55.352Z,20.70
2018-06-27T20:58:23.838Z,20.60
2018-06-27T21:00:52.345Z,20.60
2018-06-27T21:03:20.825Z,20.60
2018-06-27T21:05:49.390Z,20.50
2018-06-27T21:08:17.871Z,20.50
2018-06-27T21:10:46.362Z,20.50
2018-06-27T21:13:15.051Z,20.40
2018-06-27T21:15:43.510Z,20.50
2018-06-27T21:18:12.611Z,20.40
2018-06-27T21:20:41.079Z,20.40
2018-06-27T21:23:09.608Z,20.30
2018-06-27T21:25:38.070Z,20.30
2018-06-27T21:28:06.553Z,20.20
2018-06-27T21:30:35.049Z,20.20
2018-06-27T21:33:03.762Z,20.20
2018-06-27T21:35:32.255Z,20.20
2018-06-27T21:38:01.089Z,20.10
2018-06-27T21:40:29.551Z,20.10
2018-06-27T21:42:58.030Z,20.00
2018-06-27T21:45:26.539Z,20.00
2018-06-27T21:47:55.215Z,19.90
2018-06-27T21:52:51.883Z,19.90
2018-06-27T21:57:48.584Z,19.80
2018-06-27T22:00:18.568Z,19.70
2018-06-27T22:02:47.007Z,19.70
2018-06-27T22:05:15.564Z,19.70
2018-06-27T22:07:44.071Z,19.60
2018-06-27T22:10:12.569Z,19.60
2018-06-27T22:12:41.121Z,19.60
2018-06-27T22:15:09.602Z,19.50
2018-06-27T22:17:38.050Z,19.50
2018-06-27T22:20:06.571Z,19.50
2018-06-27T22:22:35.112Z,19.50
2018-06-27T22:25:03.693Z,19.40
2018-06-27T22:27:32.193Z,19.40
2018-06-27T22:30:00.747Z,19.40
2018-06-27T22:32:29.298Z,19.40
2018-06-27T22:37:25.944Z,19.30
2018-06-27T22:39:54.399Z,19.30
2018-06-27T22:42:22.937Z,19.30
2018-06-27T22:47:19.859Z,19.20
2018-06-27T22:49:48.379Z,19.20
2018-06-27T22:52:16.969Z,19.10
2018-06-27T22:57:13.703Z,19.10
2018-06-27T22:59:42.350Z,19.10
2018-06-27T23:02:10.872Z,19.00
2018-06-27T23:04:39.416Z,19.00
2018-06-27T23:07:07.893Z,18.90
2018-06-27T23:12:04.723Z,18.90
2018-06-27T23:14:33.175Z,18.90
2018-06-27T23:17:01.656Z,18.80
2018-06-27T23:19:30.248Z,18.80
2018-06-27T23:21:58.723Z,18.80
2018-06-27T23:24:27.196Z,18.80
2018-06-27T23:26:55.821Z,18.80
2018-06-27T23:29:24.334Z,18.70
2018-06-27T23:31:52.796Z,18.70
2018-06-27T23:34:21.290Z,18.70
2018-06-27T23:36:49.904Z,18.70
2018-06-27T23:39:18.478Z,18.70
2018-06-27T23:41:47.023Z,18.60
2018-06-27T23:44:15.528Z,18.60
2018-06-27T23:46:44.095Z,18.50
2018-06-27T23:49:12.620Z,18.50
2018-06-27T23:51:41.114Z,18.50
2018-06-27T23:54:09.680Z,18.50
2018-06-27T23:56:38.176Z,18.40
2018-06-27T23:59:06.730Z,18.40
